sensor_id;sensor_type;location;lat;lon;timestamp;pressure;altitude;pressure_sealevel;temperature;humidity
81151;BME280;70629;-26.026;27.976;2023-12-04T00:00:38;86278.00;;;22.77;44.86
81151;BME280;70629;-26.026;27.976;2023-12-04T00:01:17;86274.56;;;22.81;44.96
81151;BME280;70629;-26.026;27.976;2023-12-04T00:01:57;86267.03;;;22.73;44.83
81151;BME280;70629;-26.026;27.976;2023-12-04T00:02:37;86272.53;;;22.89;44.92
81151;BME280;70629;-26.026;27.976;2023-12-04T00:03:17;86271.88;;;22.87;44.94
81151;BME280;70629;-26.026;27.976;2023-12-04T00:03:57;86275.19;;;22.67;45.70
81151;BME280;70629;-26.026;27.976;2023-12-04T00:04:38;86273.13;;;22.61;45.38
81151;BME280;70629;-26.026;27.976;2023-12-04T00:05:17;86273.19;;;22.80;44.96
81151;BME280;70629;-26.026;27.976;2023-12-04T00:05:57;86275.31;;;23.01;44.94
81151;BME280;70629;-26.026;27.976;2023-12-04T00:06:37;86269.06;;;22.72;45.05
81151;BME280;70629;-26.026;27.976;2023-12-04T00:07:17;86267.59;;;22.49;44.55
81151;BME280;70629;-26.026;27.976;2023-12-04T00:07:58;86268.25;;;22.42;44.89
81151;BME280;70629;-26.026;27.976;2023-12-04T00:08:38;86263.47;;;22.46;45.02
81151;BME280;70629;-26.026;27.976;2023-12-04T00:09:18;86266.19;;;22.40;45.15
81151;BME280;70629;-26.026;27.976;2023-12-04T00:09:57;86265.50;;;22.31;45.67
81151;BME280;70629;-26.026;27.976;2023-12-04T00:10:37;86270.28;;;22.31;45.21
81151;BME280;70629;-26.026;27.976;2023-12-04T00:11:17;86268.91;;;22.30;45.25
81151;BME280;70629;-26.026;27.976;2023-12-04T00:11:57;86262.03;;;22.29;45.24
81151;BME280;70629;-26.026;27.976;2023-12-04T00:12:37;86265.50;;;22.40;44.84
81151;BME280;70629;-26.026;27.976;2023-12-04T00:13:17;86264.88;;;22.53;44.79
81151;BME280;70629;-26.026;27.976;2023-12-04T00:13:57;86262.16;;;22.59;45.15
81151;BME280;70629;-26.026;27.976;2023-12-04T00:14:37;86269.03;;;22.68;45.63
81151;BME280;70629;-26.026;27.976;2023-12-04T00:15:19;86260.72;;;22.44;45.37
81151;BME280;70629;-26.026;27.976;2023-12-04T00:16:00;86266.91;;;22.41;45.73
81151;BME280;70629;-26.026;27.976;2023-12-04T00:16:41;86257.91;;;22.26;45.82
81151;BME280;70629;-26.026;27.976;2023-12-04T00:17:21;86266.19;;;22.38;45.63
81151;BME280;70629;-26.026;27.976;2023-12-04T00:18:03;86258.69;;;22.47;45.68
81151;BME280;70629;-26.026;27.976;2023-12-04T00:18:43;86260.06;;;22.52;45.97
81151;BME280;70629;-26.026;27.976;2023-12-04T00:19:22;86256.63;;;22.45;46.56
81151;BME280;70629;-26.026;27.976;2023-12-04T00:20:03;86257.97;;;22.42;45.66
81151;BME280;70629;-26.026;27.976;2023-12-04T00:20:43;86262.13;;;22.45;46.19
81151;BME280;70629;-26.026;27.976;2023-12-04T00:21:22;86262.91;;;22.74;46.03
81151;BME280;70629;-26.026;27.976;2023-12-04T00:22:02;86262.91;;;22.80;45.40
81151;BME280;70629;-26.026;27.976;2023-12-04T00:22:42;86259.44;;;22.69;45.07
81151;BME280;70629;-26.026;27.976;2023-12-04T00:23:22;86262.22;;;22.80;45.06
81151;BME280;70629;-26.026;27.976;2023-12-04T00:24:04;86262.25;;;22.82;45.74
81151;BME280;70629;-26.026;27.976;2023-12-04T00:24:43;86266.34;;;22.77;45.47
81151;BME280;70629;-26.026;27.976;2023-12-04T00:25:23;86261.50;;;22.69;44.91
81151;BME280;70629;-26.026;27.976;2023-12-04T00:26:04;86260.78;;;22.58;44.96
81151;BME280;70629;-26.026;27.976;2023-12-04T00:26:44;86264.13;;;22.37;45.46
81151;BME280;70629;-26.026;27.976;2023-12-04T00:27:24;86262.69;;;22.17;45.87
81151;BME280;70629;-26.026;27.976;2023-12-04T00:28:07;86265.47;;;22.29;45.71
81151;BME280;70629;-26.026;27.976;2023-12-04T00:28:47;86264.16;;;22.47;46.01
81151;BME280;70629;-26.026;27.976;2023-12-04T00:29:27;86265.50;;;22.36;46.83
81151;BME280;70629;-26.026;27.976;2023-12-04T00:30:08;86265.50;;;22.36;46.20
81151;BME280;70629;-26.026;27.976;2023-12-04T00:30:48;86268.91;;;22.34;46.33
81151;BME280;70629;-26.026;27.976;2023-12-04T00:31:28;86273.75;;;22.48;45.59
81151;BME280;70629;-26.026;27.976;2023-12-04T00:32:08;86278.56;;;22.49;45.38
81151;BME280;70629;-26.026;27.976;2023-12-04T00:32:48;86271.53;;;22.08;46.71
81151;BME280;70629;-26.026;27.976;2023-12-04T00:33:28;86271.47;;;22.00;47.17
81151;BME280;70629;-26.026;27.976;2023-12-04T00:34:08;86268.53;;;21.71;47.74
81151;BME280;70629;-26.026;27.976;2023-12-04T00:34:48;86271.19;;;21.61;48.39
81151;BME280;70629;-26.026;27.976;2023-12-04T00:35:28;86272.59;;;21.64;48.24
81151;BME280;70629;-26.026;27.976;2023-12-04T00:36:09;86269.94;;;21.74;47.86
81151;BME280;70629;-26.026;27.976;2023-12-04T00:36:49;86267.22;;;21.78;47.93
81151;BME280;70629;-26.026;27.976;2023-12-04T00:37:29;86264.47;;;21.74;47.79
81151;BME280;70629;-26.026;27.976;2023-12-04T00:38:09;86269.88;;;21.66;48.11
81151;BME280;70629;-26.026;27.976;2023-12-04T00:38:49;86265.09;;;21.71;48.25
81151;BME280;70629;-26.026;27.976;2023-12-04T00:39:29;86265.19;;;21.83;48.21
81151;BME280;70629;-26.026;27.976;2023-12-04T00:40:10;86269.47;;;22.06;47.55
81151;BME280;70629;-26.026;27.976;2023-12-04T00:40:50;86268.19;;;22.25;47.18
81151;BME280;70629;-26.026;27.976;2023-12-04T00:41:30;86270.25;;;22.29;46.68
81151;BME280;70629;-26.026;27.976;2023-12-04T00:42:10;86270.19;;;22.19;46.96
81151;BME280;70629;-26.026;27.976;2023-12-04T00:42:50;86274.19;;;21.96;46.79
81151;BME280;70629;-26.026;27.976;2023-12-04T00:43:30;86268.66;;;21.87;47.71
81151;BME280;70629;-26.026;27.976;2023-12-04T00:44:10;86263.13;;;21.79;47.62
81151;BME280;70629;-26.026;27.976;2023-12-04T00:44:50;86270.66;;;21.85;47.95
81151;BME280;70629;-26.026;27.976;2023-12-04T00:45:30;86265.88;;;21.83;46.99
81151;BME280;70629;-26.026;27.976;2023-12-04T00:46:09;86268.66;;;21.89;47.72
81151;BME280;70629;-26.026;27.976;2023-12-04T00:46:49;86271.50;;;22.06;47.18
81151;BME280;70629;-26.026;27.976;2023-12-04T00:47:29;86272.28;;;22.22;47.53
81151;BME280;70629;-26.026;27.976;2023-12-04T00:48:48;86265.50;;;22.36;47.77
81151;BME280;70629;-26.026;27.976;2023-12-04T00:49:28;86266.09;;;22.18;47.55
81151;BME280;70629;-26.026;27.976;2023-12-04T00:50:10;86274.34;;;22.24;47.97
81151;BME280;70629;-26.026;27.976;2023-12-04T00:50:51;86272.28;;;22.22;47.20
81151;BME280;70629;-26.026;27.976;2023-12-04T00:51:37;86275.75;;;22.31;47.20
81151;BME280;70629;-26.026;27.976;2023-12-04T00:52:17;86272.88;;;22.05;47.21
81151;BME280;70629;-26.026;27.976;2023-12-04T00:52:57;86272.75;;;21.90;47.44
81151;BME280;70629;-26.026;27.976;2023-12-04T00:53:37;86270.13;;;22.03;47.22
81151;BME280;70629;-26.026;27.976;2023-12-04T00:54:17;86275.50;;;21.90;47.60
81151;BME280;70629;-26.026;27.976;2023-12-04T00:54:57;86274.69;;;21.68;47.92
81151;BME280;70629;-26.026;27.976;2023-12-04T00:55:37;86275.41;;;21.70;48.20
81151;BME280;70629;-26.026;27.976;2023-12-04T00:56:17;86271.38;;;21.85;47.95
81151;BME280;70629;-26.026;27.976;2023-12-04T00:56:58;86267.28;;;21.84;47.88
81151;BME280;70629;-26.026;27.976;2023-12-04T00:57:38;86269.97;;;21.82;47.76
81151;BME280;70629;-26.026;27.976;2023-12-04T00:58:17;86270.69;;;21.83;48.36
81151;BME280;70629;-26.026;27.976;2023-12-04T00:58:57;86270.00;;;21.84;47.94
81151;BME280;70629;-26.026;27.976;2023-12-04T00:59:37;86273.31;;;21.71;47.98
81151;BME280;70629;-26.026;27.976;2023-12-04T01:00:17;86269.25;;;21.76;48.00
81151;BME280;70629;-26.026;27.976;2023-12-04T01:00:57;86275.44;;;21.78;47.72
81151;BME280;70629;-26.026;27.976;2023-12-04T01:01:37;86271.28;;;21.75;48.17
81151;BME280;70629;-26.026;27.976;2023-12-04T01:02:17;86273.31;;;21.69;48.56
81151;BME280;70629;-26.026;27.976;2023-12-04T01:02:57;86267.91;;;21.81;48.31
81151;BME280;70629;-26.026;27.976;2023-12-04T01:03:38;86279.06;;;22.07;47.88
81151;BME280;70629;-26.026;27.976;2023-12-04T01:04:17;86279.00;;;21.97;47.98
81151;BME280;70629;-26.026;27.976;2023-12-04T01:04:57;86274.06;;;21.77;48.88
81151;BME280;70629;-26.026;27.976;2023-12-04T01:05:37;86275.41;;;21.72;48.29
81151;BME280;70629;-26.026;27.976;2023-12-04T01:06:21;86273.88;;;21.53;48.24
81151;BME280;70629;-26.026;27.976;2023-12-04T01:07:04;86276.63;;;21.51;48.09
81151;BME280;70629;-26.026;27.976;2023-12-04T01:07:47;86276.72;;;21.67;47.74
81151;BME280;70629;-26.026;27.976;2023-12-04T01:08:27;86276.06;;;21.69;48.14
81151;BME280;70629;-26.026;27.976;2023-12-04T01:09:07;86278.13;;;21.72;48.11
81151;BME280;70629;-26.026;27.976;2023-12-04T01:09:46;86278.88;;;21.83;47.72
81151;BME280;70629;-26.026;27.976;2023-12-04T01:10:27;86285.09;;;21.92;47.50
81151;BME280;70629;-26.026;27.976;2023-12-04T01:11:07;86285.16;;;22.00;47.46
81151;BME280;70629;-26.026;27.976;2023-12-04T01:11:47;86281.09;;;22.03;47.71
81151;BME280;70629;-26.026;27.976;2023-12-04T01:12:27;86277.47;;;21.78;48.70
81151;BME280;70629;-26.026;27.976;2023-12-04T01:13:07;86286.28;;;21.66;48.60
81151;BME280;70629;-26.026;27.976;2023-12-04T01:13:48;86280.25;;;21.80;48.56
81151;BME280;70629;-26.026;27.976;2023-12-04T01:14:28;86277.50;;;21.80;48.61
81151;BME280;70629;-26.026;27.976;2023-12-04T01:15:08;86280.97;;;21.90;48.66
81151;BME280;70629;-26.026;27.976;2023-12-04T01:15:48;86285.75;;;21.90;48.64
81151;BME280;70629;-26.026;27.976;2023-12-04T01:16:28;86283.66;;;21.80;48.90
81151;BME280;70629;-26.026;27.976;2023-12-04T01:17:09;86280.97;;;21.86;48.70
81151;BME280;70629;-26.026;27.976;2023-12-04T01:17:49;86287.25;;;22.05;47.44
81151;BME280;70629;-26.026;27.976;2023-12-04T01:18:29;86289.31;;;22.03;47.54
81151;BME280;70629;-26.026;27.976;2023-12-04T01:19:09;86281.66;;;21.87;48.38
81151;BME280;70629;-26.026;27.976;2023-12-04T01:19:49;86290.63;;;21.94;48.13
81151;BME280;70629;-26.026;27.976;2023-12-04T01:20:29;86283.75;;;21.93;48.46
81151;BME280;70629;-26.026;27.976;2023-12-04T01:21:09;86285.84;;;21.98;48.74
81151;BME280;70629;-26.026;27.976;2023-12-04T01:21:49;86294.81;;;22.09;48.39
81151;BME280;70629;-26.026;27.976;2023-12-04T01:22:29;86285.03;;;21.81;48.14
81151;BME280;70629;-26.026;27.976;2023-12-04T01:23:09;86286.91;;;21.55;48.54
81151;BME280;70629;-26.026;27.976;2023-12-04T01:23:49;86297.16;;;21.54;48.64
81151;BME280;70629;-26.026;27.976;2023-12-04T01:24:28;86287.69;;;21.69;48.76
81151;BME280;70629;-26.026;27.976;2023-12-04T01:25:09;86294.59;;;21.80;48.24
81151;BME280;70629;-26.026;27.976;2023-12-04T01:25:49;86289.28;;;21.99;48.63
81151;BME280;70629;-26.026;27.976;2023-12-04T01:26:29;86289.81;;;21.81;48.83
81151;BME280;70629;-26.026;27.976;2023-12-04T01:27:08;86293.19;;;21.75;48.41
81151;BME280;70629;-26.026;27.976;2023-12-04T01:27:48;86288.28;;;21.58;49.32
81151;BME280;70629;-26.026;27.976;2023-12-04T01:28:28;86286.25;;;21.58;49.00
81151;BME280;70629;-26.026;27.976;2023-12-04T01:29:08;86287.69;;;21.69;48.86
81151;BME280;70629;-26.026;27.976;2023-12-04T01:29:48;86293.03;;;21.51;48.84
81151;BME280;70629;-26.026;27.976;2023-12-04T01:30:28;86293.75;;;21.56;49.85
81151;BME280;70629;-26.026;27.976;2023-12-04T01:31:08;86294.50;;;21.64;48.88
81151;BME280;70629;-26.026;27.976;2023-12-04T01:31:48;86288.53;;;21.92;47.69
81151;BME280;70629;-26.026;27.976;2023-12-04T01:32:28;86293.94;;;21.82;47.80
81151;BME280;70629;-26.026;27.976;2023-12-04T01:33:09;86293.78;;;21.60;48.88
81151;BME280;70629;-26.026;27.976;2023-12-04T01:33:49;86291.75;;;21.60;49.28
81151;BME280;70629;-26.026;27.976;2023-12-04T01:34:28;86287.75;;;21.77;48.50
81151;BME280;70629;-26.026;27.976;2023-12-04T01:35:09;86290.47;;;21.75;48.55
81151;BME280;70629;-26.026;27.976;2023-12-04T01:35:49;86288.38;;;21.72;48.94
81151;BME280;70629;-26.026;27.976;2023-12-04T01:36:28;86293.28;;;21.83;48.38
81151;BME280;70629;-26.026;27.976;2023-12-04T01:37:10;86294.66;;;21.86;48.43
81151;BME280;70629;-26.026;27.976;2023-12-04T01:37:50;86297.22;;;21.62;48.15
81151;BME280;70629;-26.026;27.976;2023-12-04T01:38:31;86288.34;;;21.64;48.73
81151;BME280;70629;-26.026;27.976;2023-12-04T01:39:11;86289.09;;;21.76;48.85
81151;BME280;70629;-26.026;27.976;2023-12-04T01:39:51;86289.72;;;21.65;48.88
81151;BME280;70629;-26.026;27.976;2023-12-04T01:40:30;86290.31;;;21.53;49.50
81151;BME280;70629;-26.026;27.976;2023-12-04T01:41:10;86294.31;;;21.40;50.19
81151;BME280;70629;-26.026;27.976;2023-12-04T01:41:50;86292.94;;;21.37;50.14
81151;BME280;70629;-26.026;27.976;2023-12-04T01:42:30;86296.03;;;21.03;51.29
81151;BME280;70629;-26.026;27.976;2023-12-04T01:43:10;86300.91;;;21.13;50.96
81151;BME280;70629;-26.026;27.976;2023-12-04T01:43:50;86295.63;;;21.35;50.32
81151;BME280;70629;-26.026;27.976;2023-12-04T01:44:29;86303.72;;;21.19;51.01
81151;BME280;70629;-26.026;27.976;2023-12-04T01:45:09;86290.13;;;21.29;50.36
81151;BME280;70629;-26.026;27.976;2023-12-04T01:45:49;86306.50;;;21.25;50.08
81151;BME280;70629;-26.026;27.976;2023-12-04T01:46:29;86299.13;;;21.43;49.81
81151;BME280;70629;-26.026;27.976;2023-12-04T01:47:10;86302.56;;;21.42;50.23
81151;BME280;70629;-26.026;27.976;2023-12-04T01:47:51;86303.78;;;21.27;49.78
81151;BME280;70629;-26.026;27.976;2023-12-04T01:48:31;86305.19;;;21.30;49.80
81151;BME280;70629;-26.026;27.976;2023-12-04T01:49:11;86301.78;;;21.33;49.83
81151;BME280;70629;-26.026;27.976;2023-12-04T01:49:51;86309.13;;;21.15;50.92
81151;BME280;70629;-26.026;27.976;2023-12-04T01:50:31;86306.34;;;21.09;50.93
81151;BME280;70629;-26.026;27.976;2023-12-04T01:51:12;86309.22;;;21.23;50.53
81151;BME280;70629;-26.026;27.976;2023-12-04T01:51:53;86304.56;;;21.37;50.33
81151;BME280;70629;-26.026;27.976;2023-12-04T01:52:33;86308.00;;;21.40;50.65
81151;BME280;70629;-26.026;27.976;2023-12-04T01:53:16;86309.31;;;21.33;50.19
81151;BME280;70629;-26.026;27.976;2023-12-04T01:53:58;86317.72;;;21.61;49.35
81151;BME280;70629;-26.026;27.976;2023-12-04T01:54:39;86306.06;;;21.55;49.89
81151;BME280;70629;-26.026;27.976;2023-12-04T01:55:19;86312.09;;;21.37;50.04
81151;BME280;70629;-26.026;27.976;2023-12-04T01:56:01;86308.13;;;21.56;49.24
81151;BME280;70629;-26.026;27.976;2023-12-04T01:56:40;86309.53;;;21.61;49.17
81151;BME280;70629;-26.026;27.976;2023-12-04T01:57:21;86304.63;;;21.45;49.59
81151;BME280;70629;-26.026;27.976;2023-12-04T01:58:02;86308.66;;;21.38;49.90
81151;BME280;70629;-26.026;27.976;2023-12-04T01:58:42;86308.69;;;21.42;49.59
81151;BME280;70629;-26.026;27.976;2023-12-04T01:59:22;86307.38;;;21.45;49.70
81151;BME280;70629;-26.026;27.976;2023-12-04T02:00:04;86321.69;;;21.40;49.74
81151;BME280;70629;-26.026;27.976;2023-12-04T02:00:48;86314.84;;;21.43;50.00
81151;BME280;70629;-26.026;27.976;2023-12-04T02:01:28;86314.88;;;21.47;49.51
81151;BME280;70629;-26.026;27.976;2023-12-04T02:02:09;86312.25;;;21.61;49.68
81151;BME280;70629;-26.026;27.976;2023-12-04T02:02:49;86314.81;;;21.39;49.00
81151;BME280;70629;-26.026;27.976;2023-12-04T02:03:29;86321.69;;;21.40;49.04
81151;BME280;70629;-26.026;27.976;2023-12-04T02:04:09;86319.50;;;21.26;50.15
81151;BME280;70629;-26.026;27.976;2023-12-04T02:04:49;86322.28;;;21.30;49.87
81151;BME280;70629;-26.026;27.976;2023-12-04T02:05:29;86322.94;;;21.27;49.46
81151;BME280;70629;-26.026;27.976;2023-12-04T02:06:12;86316.41;;;21.66;49.51
81151;BME280;70629;-26.026;27.976;2023-12-04T02:06:52;86314.38;;;21.69;49.09
81151;BME280;70629;-26.026;27.976;2023-12-04T02:07:32;86323.97;;;21.72;49.42
81151;BME280;70629;-26.026;27.976;2023-12-04T02:08:12;86321.16;;;21.60;48.30
81151;BME280;70629;-26.026;27.976;2023-12-04T02:08:52;86312.88;;;21.50;49.49
81151;BME280;70629;-26.026;27.976;2023-12-04T02:09:32;86316.94;;;21.44;49.88
81151;BME280;70629;-26.026;27.976;2023-12-04T02:10:12;86316.38;;;21.60;49.05
81151;BME280;70629;-26.026;27.976;2023-12-04T02:10:52;86323.25;;;21.67;48.92
81151;BME280;70629;-26.026;27.976;2023-12-04T02:11:33;86322.94;;;21.29;50.08
81151;BME280;70629;-26.026;27.976;2023-12-04T02:12:12;86322.94;;;21.29;50.10
81151;BME280;70629;-26.026;27.976;2023-12-04T02:12:52;86325.03;;;21.34;50.01
81151;BME280;70629;-26.026;27.976;2023-12-04T02:13:33;86325.78;;;21.43;49.39
81151;BME280;70629;-26.026;27.976;2023-12-04T02:14:12;86327.88;;;21.44;49.75
81151;BME280;70629;-26.026;27.976;2023-12-04T02:14:52;86321.75;;;21.52;49.35
81151;BME280;70629;-26.026;27.976;2023-12-04T02:15:32;86325.88;;;21.51;49.38
81151;BME280;70629;-26.026;27.976;2023-12-04T02:16:15;86328.03;;;21.67;48.98
81151;BME280;70629;-26.026;27.976;2023-12-04T02:16:56;86330.84;;;21.73;48.77
81151;BME280;70629;-26.026;27.976;2023-12-04T02:17:39;86332.66;;;21.44;49.54
81151;BME280;70629;-26.026;27.976;2023-12-04T02:18:19;86327.78;;;21.32;49.74
81151;BME280;70629;-26.026;27.976;2023-12-04T02:19:00;86325.00;;;21.30;49.72
81151;BME280;70629;-26.026;27.976;2023-12-04T02:19:40;86335.91;;;21.24;50.26
81151;BME280;70629;-26.026;27.976;2023-12-04T02:20:20;86328.44;;;21.31;49.91
81151;BME280;70629;-26.026;27.976;2023-12-04T02:21:03;86333.69;;;21.09;50.37
81151;BME280;70629;-26.026;27.976;2023-12-04T02:21:43;86337.72;;;21.03;50.97
81151;BME280;70629;-26.026;27.976;2023-12-04T02:22:23;86340.50;;;21.10;51.39
81151;BME280;70629;-26.026;27.976;2023-12-04T02:23:03;86337.00;;;20.99;51.35
81151;BME280;70629;-26.026;27.976;2023-12-04T02:23:46;86334.25;;;20.95;50.93
81151;BME280;70629;-26.026;27.976;2023-12-04T02:24:26;86327.41;;;20.98;50.66
81151;BME280;70629;-26.026;27.976;2023-12-04T02:25:08;86332.53;;;21.28;50.46
81151;BME280;70629;-26.026;27.976;2023-12-04T02:26:15;86333.94;;;21.33;50.69
81151;BME280;70629;-26.026;27.976;2023-12-04T02:27:09;86335.38;;;21.44;50.71
81151;BME280;70629;-26.026;27.976;2023-12-04T02:27:50;86340.91;;;21.48;50.70
81151;BME280;70629;-26.026;27.976;2023-12-04T02:28:34;86328.47;;;21.33;50.46
81151;BME280;70629;-26.026;27.976;2023-12-04T02:29:41;86333.94;;;21.35;50.75
81151;BME280;70629;-26.026;27.976;2023-12-04T02:30:22;86337.19;;;21.15;51.65
81151;BME280;70629;-26.026;27.976;2023-12-04T02:31:04;86337.13;;;21.11;51.56
81151;BME280;70629;-26.026;27.976;2023-12-04T02:31:45;86339.13;;;21.07;51.30
81151;BME280;70629;-26.026;27.976;2023-12-04T02:32:30;86339.50;;;21.45;50.29
81151;BME280;70629;-26.026;27.976;2023-12-04T02:33:12;86345.69;;;21.50;49.98
81151;BME280;70629;-26.026;27.976;2023-12-04T02:33:55;86338.03;;;21.32;50.36
81151;BME280;70629;-26.026;27.976;2023-12-04T02:34:36;86340.25;;;21.52;49.78
81151;BME280;70629;-26.026;27.976;2023-12-04T02:35:20;86340.81;;;21.38;50.18
81151;BME280;70629;-26.026;27.976;2023-12-04T02:36:02;86345.56;;;21.33;50.13
81151;BME280;70629;-26.026;27.976;2023-12-04T02:36:43;86346.31;;;21.40;50.15
81151;BME280;70629;-26.026;27.976;2023-12-04T02:37:24;86348.00;;;21.05;50.65
81151;BME280;70629;-26.026;27.976;2023-12-04T02:38:05;86340.41;;;20.97;51.15
81151;BME280;70629;-26.026;27.976;2023-12-04T02:38:46;86346.06;;;21.14;51.71
81151;BME280;70629;-26.026;27.976;2023-12-04T02:39:26;86347.44;;;21.15;51.14
81151;BME280;70629;-26.026;27.976;2023-12-04T02:40:07;86353.69;;;21.25;50.71
81151;BME280;70629;-26.026;27.976;2023-12-04T02:40:48;86354.09;;;20.99;51.28
81151;BME280;70629;-26.026;27.976;2023-12-04T02:41:28;86344.63;;;21.09;51.65
81151;BME280;70629;-26.026;27.976;2023-12-04T02:42:07;86352.97;;;21.19;51.23
81151;BME280;70629;-26.026;27.976;2023-12-04T02:42:47;86351.59;;;21.20;51.44
81151;BME280;70629;-26.026;27.976;2023-12-04T02:43:27;86350.06;;;21.05;51.11
81151;BME280;70629;-26.026;27.976;2023-12-04T02:44:07;86356.16;;;21.01;51.14
81151;BME280;70629;-26.026;27.976;2023-12-04T02:44:47;86363.00;;;21.02;50.95
81151;BME280;70629;-26.026;27.976;2023-12-04T02:45:27;86356.72;;;20.89;51.20
81151;BME280;70629;-26.026;27.976;2023-12-04T02:46:07;86358.47;;;21.25;51.02
81151;BME280;70629;-26.026;27.976;2023-12-04T02:46:47;86357.91;;;21.38;50.44
81151;BME280;70629;-26.026;27.976;2023-12-04T02:47:27;86360.00;;;21.42;50.09
81151;BME280;70629;-26.026;27.976;2023-12-04T02:48:07;86368.22;;;21.42;50.41
81151;BME280;70629;-26.026;27.976;2023-12-04T02:48:47;86358.72;;;21.53;49.85
81151;BME280;70629;-26.026;27.976;2023-12-04T02:49:27;86365.44;;;21.36;50.23
81151;BME280;70629;-26.026;27.976;2023-12-04T02:50:07;86361.31;;;21.33;50.28
81151;BME280;70629;-26.026;27.976;2023-12-04T02:50:47;86359.91;;;21.32;50.44
81151;BME280;70629;-26.026;27.976;2023-12-04T02:51:27;86365.22;;;21.16;51.08
81151;BME280;70629;-26.026;27.976;2023-12-04T02:52:07;86368.91;;;20.78;51.52
81151;BME280;70629;-26.026;27.976;2023-12-04T02:52:47;86370.97;;;20.80;52.06
81151;BME280;70629;-26.026;27.976;2023-12-04T02:53:27;86374.47;;;20.88;51.71
81151;BME280;70629;-26.026;27.976;2023-12-04T02:54:07;86368.03;;;21.22;50.52
81151;BME280;70629;-26.026;27.976;2023-12-04T02:54:47;86368.00;;;21.18;50.72
81151;BME280;70629;-26.026;27.976;2023-12-04T02:55:27;86373.81;;;20.90;51.20
81151;BME280;70629;-26.026;27.976;2023-12-04T02:56:07;86370.44;;;20.93;51.57
81151;BME280;70629;-26.026;27.976;2023-12-04T02:56:47;86371.19;;;21.00;51.86
81151;BME280;70629;-26.026;27.976;2023-12-04T02:57:27;86368.06;;;21.26;51.46
81151;BME280;70629;-26.026;27.976;2023-12-04T02:58:07;86373.63;;;21.36;51.00
81151;BME280;70629;-26.026;27.976;2023-12-04T02:58:47;86378.19;;;21.13;51.36
81151;BME280;70629;-26.026;27.976;2023-12-04T02:59:27;86379.19;;;20.82;51.63
81151;BME280;70629;-26.026;27.976;2023-12-04T03:00:08;86379.22;;;20.86;52.04
81151;BME280;70629;-26.026;27.976;2023-12-04T03:00:48;86374.63;;;21.02;51.24
81151;BME280;70629;-26.026;27.976;2023-12-04T03:01:28;86374.78;;;21.15;51.36
81151;BME280;70629;-26.026;27.976;2023-12-04T03:02:08;86373.47;;;21.18;51.56
81151;BME280;70629;-26.026;27.976;2023-12-04T03:02:48;86374.59;;;20.98;51.61
81151;BME280;70629;-26.026;27.976;2023-12-04T03:03:28;86382.56;;;20.76;51.66
81151;BME280;70629;-26.026;27.976;2023-12-04T03:04:08;86375.75;;;20.79;51.93
81151;BME280;70629;-26.026;27.976;2023-12-04T03:04:48;86378.59;;;20.91;51.79
81151;BME280;70629;-26.026;27.976;2023-12-04T03:05:28;86377.91;;;20.89;51.50
81151;BME280;70629;-26.026;27.976;2023-12-04T03:06:08;86374.53;;;20.92;51.46
81151;BME280;70629;-26.026;27.976;2023-12-04T03:06:48;86384.25;;;21.08;51.53
81151;BME280;70629;-26.026;27.976;2023-12-04T03:07:28;86381.66;;;21.18;51.37
81151;BME280;70629;-26.026;27.976;2023-12-04T03:08:08;86382.84;;;21.02;51.99
81151;BME280;70629;-26.026;27.976;2023-12-04T03:08:48;86387.66;;;21.04;52.21
81151;BME280;70629;-26.026;27.976;2023-12-04T03:09:28;86393.25;;;21.16;51.23
81151;BME280;70629;-26.026;27.976;2023-12-04T03:10:26;86385.56;;;21.02;51.49
81151;BME280;70629;-26.026;27.976;2023-12-04T03:11:07;86388.19;;;20.92;51.43
81151;BME280;70629;-26.026;27.976;2023-12-04T03:11:46;86387.00;;;21.08;51.08
81151;BME280;70629;-26.026;27.976;2023-12-04T03:12:26;86388.88;;;20.93;51.66
81151;BME280;70629;-26.026;27.976;2023-12-04T03:13:06;86389.69;;;21.06;52.64
81151;BME280;70629;-26.026;27.976;2023-12-04T03:13:46;86390.97;;;20.96;52.30
81151;BME280;70629;-26.026;27.976;2023-12-04T03:14:26;86388.22;;;20.94;52.44
81151;BME280;70629;-26.026;27.976;2023-12-04T03:15:06;86386.84;;;20.95;52.04
81151;BME280;70629;-26.026;27.976;2023-12-04T03:15:45;86392.34;;;20.97;52.64
81151;BME280;70629;-26.026;27.976;2023-12-04T03:16:26;86387.00;;;21.08;52.31
81151;BME280;70629;-26.026;27.976;2023-12-04T03:17:05;86389.75;;;21.10;52.89
81151;BME280;70629;-26.026;27.976;2023-12-04T03:17:46;86386.34;;;21.11;51.80
81151;BME280;70629;-26.026;27.976;2023-12-04T03:18:26;86391.38;;;21.31;50.79
81151;BME280;70629;-26.026;27.976;2023-12-04T03:19:08;86391.31;;;21.27;50.60
81151;BME280;70629;-26.026;27.976;2023-12-04T03:19:48;86393.31;;;20.64;52.81
81151;BME280;70629;-26.026;27.976;2023-12-04T03:20:28;86389.72;;;20.49;53.51
81151;BME280;70629;-26.026;27.976;2023-12-04T03:21:07;86390.50;;;20.56;53.29
81151;BME280;70629;-26.026;27.976;2023-12-04T03:21:48;86394.66;;;20.61;52.69
81151;BME280;70629;-26.026;27.976;2023-12-04T03:22:27;86389.72;;;20.49;53.19
81151;BME280;70629;-26.026;27.976;2023-12-04T03:23:07;86393.25;;;20.56;53.02
81151;BME280;70629;-26.026;27.976;2023-12-04T03:23:47;86394.91;;;20.81;52.26
81151;BME280;70629;-26.026;27.976;2023-12-04T03:24:27;86398.16;;;20.68;52.91
81151;BME280;70629;-26.026;27.976;2023-12-04T03:25:08;86396.44;;;20.40;53.40
81151;BME280;70629;-26.026;27.976;2023-12-04T03:25:48;86390.97;;;20.40;53.30
81151;BME280;70629;-26.026;27.976;2023-12-04T03:26:27;86391.81;;;20.53;53.05
81151;BME280;70629;-26.026;27.976;2023-12-04T03:27:09;86394.09;;;20.71;52.92
81151;BME280;70629;-26.026;27.976;2023-12-04T03:27:48;86395.03;;;20.93;52.57
81151;BME280;70629;-26.026;27.976;2023-12-04T03:28:28;86399.47;;;21.21;52.29
81151;BME280;70629;-26.026;27.976;2023-12-04T03:29:08;86395.22;;;21.10;52.36
81151;BME280;70629;-26.026;27.976;2023-12-04T03:29:48;86401.91;;;20.94;52.96
81151;BME280;70629;-26.026;27.976;2023-12-04T03:30:28;86400.44;;;20.85;53.17